Cedar Ridge, CA (95924)

10:04 AM PDT on September 19, 2014 (GMT -0700)
Cedar Ridge | Change Station
CLOSE
Current Station
Personal Weather Station
Location: Grass Valley, CA
Elevation: 2854 ft
Nearby Weather Stations

Elev 2854 ft 39.20 °N, 121.03 °W | Updated 17 seconds ago

Clear
Clear
71.4 °F
Feels Like 77 °F
N
-
Wind Variable Wind from North

Today
High -- | Low -- °F
--% Chance of Precip.
Yesterday
High -- | Low -- °F
Precip. -- in
6:49 AM 7:05 PM
Waning Crescent, 18% visible
Pressure 29.97 in
Visibility 6.0 miles
Clouds Clear
Heat Index 77 °F
Dew Point 53 °F
Humidity 50%
Rainfall 0.00 in
Snow Depth 1 in , 0 in , 0 in
UV 4 out of 12
Pollen 5.90 out of 12
Ozone Good
Flu Activity Not available.
METAR KGOO 191700Z AUTO 00000KT 6SM CLR 22/09 A2997 RMK AO1

More Conditions Fewer Conditions

Pressure 29.97 in
Visibility 6.0 miles
Clouds Clear
Heat Index 77 °F
Dew Point 53 °F
Humidity 50%
Rainfall 0.00 in
Snow Depth 1 in , 0 in , 0 in
UV 4 out of 12
Pollen 5.90 out of 12
Ozone Good
Flu Activity Not available.
METAR KGOO 191700Z AUTO 00000KT 6SM CLR 22/09 A2997 RMK AO1

More Conditions Fewer Conditions

10-Day Weather Forecast

Almanac

Astronomy

Sep. 19, 2014 Rise Set
Actual Time 6:49 AM PDT 7:05 PM PDT
Civil Twilight 6:22 AM PDT 7:32 PM PDT
Nautical Twilight 5:50 AM PDT 8:03 PM PDT
Astronomical Twilight 5:18 AM PDT 8:35 PM PDT
Moon 2:40 AM PDT 4:36 PM PDT
Length of Visible Light 13h 10m
Length of Day
12h 16m
Tomorrow will be 2m 32s shorter.
Waning Crescent, 18% of the Moon is Illuminated
Today
Waning Crescent
Sep 24
New
Oct 1
First Quarter
Oct 8
Full
Oct 15
Last Quarter

Today's Extremes

State Highs State Lows

Community

WunderPhotos

Upload Photos

1,754,655 photos uploaded!

Nearby

Air Quality

  Air Quality AQ Index Pollutant
Yesterday Good
OZONE
Current Good
OZONE

Snow Depth

Station Depth Elevation
CSS Lab 1 in 6900 ft
Echo Peak 0 in 7800 ft
Heavenly Valley 0 in 8850 ft
Hagan's Meadow 0 in 8000 ft
Fallen Leaf 0 in 6300 ft

Earthquake Activity

City Distance Mag. Time & Date
Livermore, California 111 miles 2.6 3:37 AM PDT
2014-09-19
The Geysers, California 96 miles 2.5 11:29 PM PDT
2014-09-17
Cobb, California 95 miles 2.7 1:23 PM PDT
2014-09-16
Minimum magnitude displayed is 2.5.

Coastal Water Temperatures

Place Temperature
No Stations Reporting

Nearby Weather Stations